Aeroporto :
LOGIN :

Iscrizione | Disclaimer

   EN    FR    IT 

 










Sommario :    VFR   VFR Marginale   IFR   IFR Intensivo   IFR Molto Intensivo
Visibilità : 
Base nubi : 
>= 8 km
>= 3000ft
5 / 8 km
1000 / 3000 ft
1500m / 5 km
500 / 1000 ft
800 / 1500m
200 / 500 ft
< 800m
< 200 ft
Simboli :   Temporali  Nebbia  Neve Forte  Precipitazioni Forti  Vento > 20 kt
SIGMETs :   Varie  Temporali  Ghiacco  Turbolenza  Onda orograficha  Ceneri Vulcaniche






- Altitudine del aeroporto : 1000 ft
- Codice IATA : PEV


LHPP - Pécs Pogany

ULTIMO METAR :
  • 240815Z AUTO 27009KT 9000 OVC005 07/06 Q1005

METARs OBSOLETI :
  • 240745Z AUTO 28009KT 250V310 9999 OVC006 07/06 Q1005
  • 240715Z AUTO 28009KT 9999 BKN007 OVC022 07/06 Q1004
  • 240645Z AUTO 28010KT 9999 BKN006 OVC017 07/06 Q1004
  • 240615Z AUTO 29009KT 260V330 9999 OVC008 07/07 Q1004
  • 240545Z AUTO 29010KT 260V320 9999 OVC005 07/06 Q1004
  • 240515Z AUTO 28011KT 250V320 9999 OVC004 07/07 Q1004
  • 240445Z AUTO 28011KT 260V320 9999 OVC003 07/07 Q1004
  • 240415Z AUTO 27008KT 250V310 7000 -DZ OVC002 //////TCU 08/08 Q1004
  • 240345Z AUTO 31006KT 270V340 4300 DZ OVC002 //////TCU 09/09 Q1003

TAF TAF LHPP
Valido dal 24 a 09 ore il 24 a 18 ore UTC


240815Z 2409/2418 29009KT 9000 OVC004
BECMG 2409/2412 9999 SCT008 OVC020
BECMG 2415/2418 VRB03KT CAVOK



MetMap, La meteo Aeronautica in un colpo d'occhio ! - Copyright ORBIFLY Dicembre 2007 - Disclaimer

ORBIFLY MET'MAP TEAM :

Programmazione e sviluppo : Alexandra Zaïnal
Concezione : Baudouin d'Aumeries
Supporto tecnico e logistico : Manuel Goepfert
Aiuto : Marc-Olivier Méhu
Aiuto per la traduzione : Arnaldo La Scala




FONTI E CREDITI :

   NOAA